Time;durP1;ratioP1;P1;durP2;ratioP2;P2;SDS_P1;SDS_P2;PMS_P1;PMS_P2;Temp;Humidity;BMP_temperature;BMP_pressure;BME280_temperature;BME280_humidity;BME280_pressure;Samples;Min_cycle;Max_cycle;Signal;HPM_P1;HPM_P2
2023/06/15 00:01:58;;;;;;;;;44.75;38.50;;;;;23.40;40.81;100669.22;5036950;28;45236;-68
2023/06/15 00:04:24;;;;;;;;;52.50;43.25;;;;;23.36;40.91;100679.41;5036947;28;45432;-69
2023/06/15 00:06:50;;;;;;;;;54.75;45.25;;;;;23.32;40.96;100680.66;5036802;28;45405;-65
2023/06/15 00:09:15;;;;;;;;;58.75;48.00;;;;;23.28;40.86;100674.72;5036697;28;45311;-69
2023/06/15 00:11:41;;;;;;;;;65.67;57.00;;;;;23.23;41.17;100673.41;5036648;28;45508;-67
2023/06/15 00:14:07;;;;;;;;;57.75;47.25;;;;;23.17;41.10;100675.69;5036758;28;45555;-69
2023/06/15 00:16:33;;;;;;;;;56.00;46.75;;;;;23.16;41.08;100683.91;5036317;28;46433;-67
2023/06/15 00:18:59;;;;;;;;;52.75;43.25;;;;;23.10;41.28;100679.09;5036478;28;45528;-68
2023/06/15 00:21:26;;;;;;;;;46.75;40.25;;;;;23.07;41.65;100677.53;5036584;28;45317;-68
2023/06/15 00:23:51;;;;;;;;;44.75;38.25;;;;;23.00;41.47;100676.41;5036983;28;45260;-65
2023/06/15 00:26:16;;;;;;;;;42.25;37.25;;;;;22.94;41.78;100679.66;5036322;28;45980;-68
2023/06/15 00:28:42;;;;;;;;;45.75;39.00;;;;;22.90;41.82;100677.25;5036288;28;45172;-69
2023/06/15 00:31:07;;;;;;;;;37.25;34.00;;;;;22.86;42.12;100686.56;5035500;28;45184;-66
2023/06/15 00:33:33;;;;;;;;;37.75;34.00;;;;;22.81;42.15;100691.50;5036636;28;45929;-69
2023/06/15 00:35:59;;;;;;;;;37.25;33.75;;;;;22.79;42.06;100685.41;5036028;28;45709;-68
2023/06/15 00:38:24;;;;;;;;;35.25;33.00;;;;;22.73;42.10;100689.50;5036043;28;45332;-69
2023/06/15 00:40:50;;;;;;;;;42.25;35.75;;;;;22.65;41.97;100686.66;5036771;28;45296;-67
2023/06/15 00:43:15;;;;;;;;;33.75;31.25;;;;;22.64;42.49;100694.84;5036504;28;45417;-69
2023/06/15 00:45:41;;;;;;;;;33.25;31.75;;;;;22.60;42.14;100696.94;5035929;28;45431;-68
2023/06/15 00:48:06;;;;;;;;;31.75;30.00;;;;;22.55;42.35;100685.78;5035829;28;45481;-70
2023/06/15 00:50:33;;;;;;;;;33.75;30.25;;;;;22.50;42.30;100694.25;5036106;28;45425;-68
2023/06/15 00:53:00;;;;;;;;;30.75;30.25;;;;;22.45;42.41;100696.50;5034640;28;45326;-69
2023/06/15 00:55:27;;;;;;;;;32.50;31.00;;;;;22.40;42.66;100688.00;5035616;28;45441;-68
2023/06/15 00:57:56;;;;;;;;;33.75;32.00;;;;;22.37;42.79;100686.41;5036155;28;45401;-69
2023/06/15 01:00:21;;;;;;;;;32.25;31.00;;;;;22.37;42.93;100701.66;5036375;28;45393;-68
2023/06/15 01:02:49;;;;;;;;;36.25;33.50;;;;;22.28;42.70;100693.47;5035991;28;45641;-67
2023/06/15 01:05:16;;;;;;;;;31.75;30.50;;;;;22.31;43.02;100690.50;5034385;28;46473;-65
2023/06/15 01:07:46;;;;;;;;;33.00;31.75;;;;;22.29;43.05;100702.31;5035560;28;45341;-65
2023/06/15 01:10:14;;;;;;;;;34.00;31.75;;;;;22.27;43.38;100686.41;5035549;28;45499;-66
2023/06/15 01:12:44;;;;;;;;;33.75;30.50;;;;;22.22;43.58;100693.13;5051019;28;45464;-66
2023/06/15 01:15:10;;;;;;;;;29.50;29.25;;;;;22.22;43.32;100698.50;5035692;28;45650;-65
2023/06/15 01:17:44;;;;;;;;;28.75;28.50;;;;;22.12;43.49;100685.91;5035625;28;45472;-67
2023/06/15 01:20:16;;;;;;;;;27.25;27.25;;;;;22.13;43.82;100692.09;5035730;28;45284;-67
2023/06/15 01:23:21;;;;;;;;;30.00;29.75;;;;;22.08;43.54;100691.66;5035867;28;45407;-68
2023/06/15 01:25:48;;;;;;;;;27.75;27.75;;;;;22.07;43.89;100703.34;5035496;28;45567;-68
2023/06/15 01:28:20;;;;;;;;;29.00;27.75;;;;;21.99;43.82;100693.31;5035475;28;45200;-69
2023/06/15 01:30:48;;;;;;;;;25.50;25.50;;;;;21.97;43.99;100698.81;5035703;28;45390;-68
2023/06/15 01:33:15;;;;;;;;;27.75;27.75;;;;;21.93;44.00;100701.91;5035553;28;45212;-67
2023/06/15 01:35:41;;;;;;;;;26.50;26.50;;;;;21.91;44.06;100693.16;5035307;28;46477;-68
2023/06/15 01:38:07;;;;;;;;;27.75;27.75;;;;;21.90;44.38;100697.63;5035370;28;45530;-69
2023/06/15 01:40:37;;;;;;;;;27.00;27.00;;;;;21.86;44.60;100696.22;5035512;28;45362;-67
2023/06/15 01:43:07;;;;;;;;;28.25;28.25;;;;;21.77;44.34;100680.94;5035520;28;45542;-65
2023/06/15 01:45:34;;;;;;;;;26.00;25.75;;;;;21.80;44.37;100699.41;5035126;28;46126;-67
2023/06/15 01:47:59;;;;;;;;;26.75;26.75;;;;;21.73;44.60;100697.25;5050476;28;45450;-67
2023/06/15 01:50:25;;;;;;;;;28.25;27.50;;;;;21.73;44.46;100702.63;5035416;28;45366;-66
2023/06/15 01:52:51;;;;;;;;;28.50;28.00;;;;;21.66;45.07;100696.09;5035319;28;45304;-67
2023/06/15 01:55:16;;;;;;;;;26.50;26.50;;;;;21.65;44.70;100693.53;5035028;28;46061;-69
2023/06/15 01:57:42;;;;;;;;;28.00;27.50;;;;;21.63;44.91;100707.06;5034906;28;45422;-69
2023/06/15 02:00:10;;;;;;;;;22.50;21.50;;;;;21.61;44.76;100706.31;5035058;28;45325;-68
2023/06/15 02:02:36;;;;;;;;;26.50;26.50;;;;;21.58;44.86;100701.22;5035147;28;45503;-68
2023/06/15 02:05:03;;;;;;;;;22.75;22.75;;;;;21.57;44.82;100692.34;5034675;28;46302;-69
2023/06/15 02:07:29;;;;;;;;;25.75;25.75;;;;;21.55;44.85;100702.31;5050583;28;45777;-66
2023/06/15 02:09:54;;;;;;;;;24.50;24.50;;;;;21.51;45.19;100700.88;5035147;28;45444;-66
2023/06/15 02:12:20;;;;;;;;;23.25;23.25;;;;;21.47;45.04;100691.44;5035281;28;45347;-68
2023/06/15 02:14:47;;;;;;;;;26.00;26.00;;;;;21.51;45.37;100702.72;5033182;28;46121;-68
2023/06/15 02:17:13;;;;;;;;;24.75;24.50;;;;;21.45;45.17;100699.59;5034510;28;45314;-69
2023/06/15 02:19:38;;;;;;;;;30.00;29.75;;;;;21.40;44.90;100690.25;5034758;28;45496;-68
2023/06/15 02:22:04;;;;;;;;;26.25;26.25;;;;;21.44;45.13;100699.72;5034983;28;45426;-67
2023/06/15 02:24:29;;;;;;;;;27.25;27.25;;;;;21.41;45.63;100702.66;5034858;28;46065;-68
2023/06/15 02:26:55;;;;;;;;;23.50;23.50;;;;;21.40;45.50;100700.94;5034679;28;45411;-69
2023/06/15 02:29:20;;;;;;;;;27.00;27.00;;;;;21.38;45.57;100697.56;5034682;28;45907;-69
2023/06/15 02:31:45;;;;;;;;;24.75;24.25;;;;;21.36;45.18;100695.03;5034758;28;45533;-68
2023/06/15 02:34:11;;;;;;;;;26.75;26.75;;;;;21.35;45.55;100698.69;5034208;28;46434;-67
2023/06/15 02:36:37;;;;;;;;;26.25;26.25;;;;;21.33;45.37;100699.78;5034171;28;45378;-68
2023/06/15 02:39:03;;;;;;;;;27.00;26.75;;;;;21.29;45.27;100693.84;5034381;28;45361;-69
2023/06/15 02:41:29;;;;;;;;;24.00;24.00;;;;;21.29;45.31;100700.03;5050263;28;45452;-68
2023/06/15 02:43:54;;;;;;;;;23.00;22.00;;;;;21.25;45.34;100695.91;5034159;28;46388;-67
2023/06/15 02:46:20;;;;;;;;;21.75;21.75;;;;;21.24;44.84;100690.72;5034262;28;45304;-67
2023/06/15 02:48:51;;;;;;;;;23.50;23.50;;;;;21.22;44.79;100693.50;5034230;28;45232;-68
2023/06/15 02:51:17;;;;;;;;;23.50;23.50;;;;;21.21;45.28;100697.16;5032782;28;45617;-66
2023/06/15 02:53:42;;;;;;;;;22.50;22.50;;;;;21.13;45.30;100692.44;5049136;28;45449;-67
2023/06/15 02:56:09;;;;;;;;;28.00;28.00;;;;;21.19;45.40;100701.78;5037047;28;49765;-68
2023/06/15 02:58:34;;;;;;;;;24.25;24.25;;;;;21.15;45.03;100701.16;5036239;28;45320;-68
2023/06/15 03:01:00;;;;;;;;;23.00;23.00;;;;;21.13;45.49;100705.81;5036564;28;45421;-67
2023/06/15 03:03:27;;;;;;;;;23.75;23.75;;;;;21.16;45.11;100705.53;5035906;28;47382;-68
2023/06/15 03:05:54;;;;;;;;;24.00;23.00;;;;;21.15;45.52;100703.84;5037354;28;45334;-69
2023/06/15 03:08:20;;;;;;;;;23.25;23.25;;;;;21.10;45.56;100703.38;5037189;28;45390;-68
2023/06/15 03:10:45;;;;;;;;;25.00;25.00;;;;;21.10;45.73;100702.53;5037423;28;45395;-68
2023/06/15 03:13:11;;;;;;;;;23.25;22.00;;;;;21.07;45.65;100710.81;5036977;28;45382;-64
2023/06/15 03:15:37;;;;;;;;;25.25;25.25;;;;;21.02;46.10;100708.53;5035883;28;45403;-64
2023/06/15 03:18:04;;;;;;;;;24.00;24.00;;;;;20.96;46.14;100709.03;5037679;28;45290;-67
2023/06/15 03:20:32;;;;;;;;;25.50;25.50;;;;;20.91;46.27;100703.22;5037776;28;45498;-68
2023/06/15 03:22:58;;;;;;;;;26.75;26.75;;;;;20.90;45.85;100705.06;5035709;28;46376;-65
2023/06/15 03:25:23;;;;;;;;;23.50;23.50;;;;;20.93;45.93;100714.63;5037004;28;45420;-65
2023/06/15 03:27:52;;;;;;;;;23.50;23.50;;;;;20.92;46.10;100708.44;5035765;28;45803;-66
2023/06/15 03:30:18;;;;;;;;;21.75;21.75;;;;;20.84;45.89;100695.69;5052592;28;45333;-67
2023/06/15 03:32:46;;;;;;;;;24.75;24.75;;;;;20.87;46.11;100708.81;5036809;28;46372;-66
2023/06/15 03:35:12;;;;;;;;;25.00;25.00;;;;;20.89;46.32;100713.19;5036868;28;45235;-67
2023/06/15 03:37:37;;;;;;;;;24.50;24.50;;;;;20.79;46.08;100697.91;5037027;28;45181;-65
2023/06/15 03:40:05;;;;;;;;;20.75;20.75;;;;;20.82;46.04;100702.16;5037942;28;45239;-69
2023/06/15 03:42:31;;;;;;;;;26.25;26.25;;;;;20.80;46.38;100707.63;5037271;28;46225;-69
2023/06/15 03:44:56;;;;;;;;;23.75;23.75;;;;;20.80;46.41;100714.81;5035670;28;45477;-65
2023/06/15 03:47:21;;;;;;;;;25.00;25.00;;;;;20.74;46.80;100710.75;5036985;28;45494;-68
2023/06/15 03:49:47;;;;;;;;;27.50;26.75;;;;;20.80;46.68;100723.66;5035566;28;48315;-68
2023/06/15 03:52:12;;;;;;;;;27.50;25.50;;;;;20.79;46.76;100716.59;5052048;28;48185;-67
2023/06/15 03:54:37;;;;;;;;;32.25;31.25;;;;;20.78;47.05;100722.06;5036675;28;45356;-66
2023/06/15 03:57:03;;;;;;;;;28.50;28.50;;;;;20.74;47.33;100721.44;5036699;28;45370;-67
2023/06/15 03:59:28;;;;;;;;;37.00;33.00;;;;;20.72;47.21;100716.25;5036709;28;45522;-68
2023/06/15 04:01:53;;;;;;;;;33.00;31.75;;;;;20.70;47.45;100717.31;5035005;28;47321;-68
2023/06/15 04:04:19;;;;;;;;;24.00;24.00;;;;;20.68;47.58;100719.28;5035023;28;45527;-68
2023/06/15 04:06:46;;;;;;;;;30.25;29.75;;;;;20.64;47.98;100720.50;5036657;28;45365;-68
2023/06/15 04:09:13;;;;;;;;;30.00;29.25;;;;;20.60;48.16;100709.19;5036931;28;45516;-64
2023/06/15 04:11:39;;;;;;;;;24.50;24.50;;;;;20.64;47.98;100721.34;5036011;28;45230;-67
2023/06/15 04:14:05;;;;;;;;;25.00;25.00;;;;;20.65;47.97;100727.53;5036640;28;45292;-68
2023/06/15 04:16:30;;;;;;;;;25.75;25.75;;;;;20.62;48.04;100731.28;5036602;28;45210;-65
2023/06/15 04:18:56;;;;;;;;;27.00;27.00;;;;;20.62;47.95;100731.28;5035739;28;57794;-68
2023/06/15 04:21:21;;;;;;;;;21.75;20.50;;;;;20.61;47.91;100734.09;5034946;28;47068;-67
2023/06/15 04:23:46;;;;;;;;;24.00;24.00;;;;;20.56;48.39;100732.66;5036167;28;45391;-66
2023/06/15 04:26:13;;;;;;;;;19.75;19.75;;;;;20.56;48.46;100740.66;5036408;28;45579;-69
2023/06/15 04:28:39;;;;;;;;;22.75;22.75;;;;;20.51;48.07;100734.84;5036301;28;45470;-69
2023/06/15 04:31:08;;;;;;;;;20.50;20.50;;;;;20.52;47.75;100743.69;5035989;28;56490;-69
2023/06/15 04:33:34;;;;;;;;;27.00;27.00;;;;;20.51;48.08;100742.00;5034917;28;45236;-67
2023/06/15 04:36:00;;;;;;;;;21.00;21.00;;;;;20.53;48.10;100740.06;5036922;28;45239;-65
2023/06/15 04:38:26;;;;;;;;;24.50;24.50;;;;;20.54;47.98;100747.09;5036383;28;45432;-67
2023/06/15 04:40:52;;;;;;;;;25.50;25.50;;;;;20.54;47.97;100742.63;5051285;28;47147;-66
2023/06/15 04:43:18;;;;;;;;;26.50;26.50;;;;;20.55;48.40;100743.44;5034579;28;45557;-69
2023/06/15 04:45:44;;;;;;;;;23.75;22.75;;;;;20.51;48.23;100739.31;5035943;28;45454;-69
2023/06/15 04:48:09;;;;;;;;;20.75;20.75;;;;;20.48;47.68;100740.44;5035923;28;45293;-68
2023/06/15 04:50:35;;;;;;;;;22.75;22.75;;;;;20.52;48.13;100752.56;5036059;28;46166;-69
2023/06/15 04:53:00;;;;;;;;;22.75;22.75;;;;;20.50;48.13;100746.50;5035548;28;45394;-68
2023/06/15 04:55:25;;;;;;;;;19.25;19.25;;;;;20.58;47.58;100753.91;5036026;28;45446;-67
2023/06/15 04:57:51;;;;;;;;;25.25;22.50;;;;;20.61;47.63;100755.47;5037033;28;45617;-69
2023/06/15 05:00:17;;;;;;;;;22.25;22.25;;;;;20.68;47.44;100762.03;5036717;28;45814;-68
2023/06/15 05:02:43;;;;;;;;;21.00;21.00;;;;;20.84;47.99;100769.72;5036838;28;45270;-66
2023/06/15 05:05:08;;;;;;;;;21.00;21.00;;;;;20.95;47.59;100764.34;5037016;28;45311;-68
2023/06/15 05:07:34;;;;;;;;;19.00;19.00;;;;;21.09;47.23;100763.19;5036360;28;45611;-68
2023/06/15 05:10:03;;;;;;;;;20.00;20.00;;;;;21.16;46.77;100747.50;5036336;28;45991;-67
2023/06/15 05:12:28;;;;;;;;;17.75;17.75;;;;;21.33;46.28;100759.50;5035515;28;45238;-67
2023/06/15 05:14:54;;;;;;;;;19.00;19.00;;;;;21.43;46.28;100752.41;5034991;28;45355;-65
2023/06/15 05:17:19;;;;;;;;;21.00;21.00;;;;;21.60;45.77;100758.97;5035035;28;45272;-68
2023/06/15 05:19:45;;;;;;;;;18.50;18.50;;;;;21.75;45.91;100761.41;5035190;28;45362;-68
2023/06/15 05:22:13;;;;;;;;;19.50;19.50;;;;;21.87;45.24;100762.16;5035368;28;45494;-67
2023/06/15 05:24:39;;;;;;;;;20.50;20.50;;;;;21.97;45.04;100768.44;5035671;28;45389;-68
2023/06/15 05:27:04;;;;;;;;;20.50;20.50;;;;;22.12;45.15;100776.13;5033826;28;45640;-69
2023/06/15 05:29:30;;;;;;;;;22.00;21.75;;;;;22.20;44.87;100770.94;5034669;28;45451;-66
2023/06/15 05:31:56;;;;;;;;;20.00;20.00;;;;;22.31;44.59;100772.72;5034821;28;45404;-66
2023/06/15 05:34:21;;;;;;;;;21.50;21.50;;;;;22.36;44.59;100775.84;5033438;28;45438;-68
2023/06/15 05:36:47;;;;;;;;;21.50;21.50;;;;;22.45;44.49;100785.78;5035342;28;45488;-67
2023/06/15 05:39:12;;;;;;;;;22.00;20.75;;;;;22.49;44.47;100777.47;5034709;28;45371;-67
2023/06/15 05:41:37;;;;;;;;;22.50;22.50;;;;;22.53;44.72;100771.72;5035663;28;45314;-67
2023/06/15 05:44:03;;;;;;;;;21.75;21.75;;;;;22.60;44.50;100778.22;5034257;28;45485;-69
2023/06/15 05:46:28;;;;;;;;;22.50;22.50;;;;;22.66;44.48;100784.88;5035364;28;45374;-67
2023/06/15 05:48:54;;;;;;;;;24.75;24.50;;;;;22.69;44.11;100778.41;5035343;28;50902;-69
2023/06/15 05:51:19;;;;;;;;;25.50;25.50;;;;;22.68;44.23;100780.22;5035154;28;45387;-69
2023/06/15 05:53:45;;;;;;;;;18.50;18.50;;;;;22.75;43.98;100784.03;5035264;28;45350;-67
2023/06/15 05:56:10;;;;;;;;;22.50;22.50;;;;;22.76;44.28;100792.94;5036263;28;45335;-66
2023/06/15 05:58:37;;;;;;;;;21.50;21.50;;;;;22.79;44.20;100791.81;5034748;28;45437;-67
2023/06/15 06:01:03;;;;;;;;;19.50;19.50;;;;;22.79;44.11;100786.44;5033888;28;45346;-69
2023/06/15 06:03:29;;;;;;;;;18.50;18.50;;;;;22.80;43.83;100798.88;5033303;28;45334;-70
2023/06/15 06:05:54;;;;;;;;;19.50;18.75;;;;;22.81;43.78;100800.59;5034821;28;45321;-69
2023/06/15 06:08:21;;;;;;;;;21.25;21.25;;;;;22.73;44.01;100793.22;5034702;28;46278;-68
2023/06/15 06:10:47;;;;;;;;;19.00;19.00;;;;;22.73;43.78;100801.28;5035140;28;45461;-69
2023/06/15 06:13:12;;;;;;;;;21.25;21.25;;;;;22.69;43.91;100799.84;5035275;28;45354;-67
2023/06/15 06:15:38;;;;;;;;;18.50;18.50;;;;;22.68;44.22;100793.63;5035821;28;45271;-68
2023/06/15 06:18:04;;;;;;;;;21.75;21.75;;;;;22.65;44.15;100798.41;5035256;28;46404;-69
2023/06/15 06:20:31;;;;;;;;;21.75;21.75;;;;;22.59;44.41;100794.44;5033835;28;45356;-64
2023/06/15 06:22:56;;;;;;;;;22.75;22.75;;;;;22.55;44.32;100801.91;5032716;28;45299;-67
2023/06/15 06:25:22;;;;;;;;;22.25;22.25;;;;;22.47;44.29;100799.91;5034971;28;45332;-66
2023/06/15 06:27:48;;;;;;;;;20.00;20.00;;;;;22.41;44.20;100803.06;5034813;28;45592;-72
2023/06/15 06:30:13;;;;;;;;;24.50;24.50;;;;;22.35;44.79;100800.94;5036884;28;45233;-69
2023/06/15 06:32:42;;;;;;;;;20.50;20.50;;;;;22.35;44.51;100803.63;5038458;28;45231;-68
2023/06/15 06:35:07;;;;;;;;;21.25;21.25;;;;;22.32;44.58;100807.44;5038826;28;45554;-69
2023/06/15 06:37:33;;;;;;;;;22.00;22.00;;;;;22.35;44.72;100811.66;5038526;28;45957;-66
2023/06/15 06:39:59;;;;;;;;;23.75;23.75;;;;;22.30;44.38;100805.84;5036465;28;45504;-67
2023/06/15 06:42:24;;;;;;;;;21.25;21.25;;;;;22.28;44.48;100806.00;5037773;28;45390;-69
2023/06/15 06:44:50;;;;;;;;;21.75;21.75;;;;;22.31;44.92;100821.81;5050549;28;45448;-68
2023/06/15 06:47:15;;;;;;;;;19.25;19.25;;;;;22.36;44.81;100813.34;5062556;28;46601;-71
2023/06/15 06:49:41;;;;;;;;;21.25;21.25;;;;;22.37;44.57;100820.41;5069886;27;45563;-68
2023/06/15 06:52:07;;;;;;;;;24.00;24.00;;;;;22.31;44.75;100816.44;5053848;28;45528;-70
2023/06/15 06:54:32;;;;;;;;;25.00;24.25;;;;;22.37;44.71;100824.94;5038462;28;45199;-69
2023/06/15 06:56:57;;;;;;;;;30.00;29.25;;;;;22.42;45.11;100828.06;5054281;28;46130;-69
2023/06/15 06:59:23;;;;;;;;;29.50;29.25;;;;;22.45;45.15;100827.81;5057582;28;45211;-67
2023/06/15 07:01:48;;;;;;;;;21.75;21.75;;;;;22.42;44.88;100815.50;5046169;28;45406;-68
2023/06/15 07:04:13;;;;;;;;;21.25;21.00;;;;;22.51;44.56;100819.25;5037189;28;45305;-70
2023/06/15 07:06:39;;;;;;;;;22.25;22.25;;;;;22.56;44.85;100821.50;5050507;28;46090;-71
2023/06/15 07:09:04;;;;;;;;;20.00;20.00;;;;;22.60;44.29;100831.84;5056325;28;45402;-70
2023/06/15 07:11:30;;;;;;;;;23.00;23.00;;;;;22.59;44.47;100832.84;5057011;28;45268;-67
2023/06/15 07:13:55;;;;;;;;;19.75;19.75;;;;;22.59;44.27;100830.16;5040859;28;45304;-67
2023/06/15 07:16:20;;;;;;;;;20.00;20.00;;;;;22.65;44.32;100830.59;5039146;28;54385;-66
2023/06/15 07:18:46;;;;;;;;;22.25;22.25;;;;;22.64;43.94;100836.94;5056169;28;45457;-70
2023/06/15 07:21:11;;;;;;;;;29.75;28.00;;;;;22.67;44.43;100836.66;5037054;28;50266;-69
2023/06/15 07:23:36;;;;;;;;;33.00;31.25;;;;;22.67;44.62;100840.19;5036522;28;45300;-68
2023/06/15 07:26:02;;;;;;;;;20.00;20.00;;;;;22.75;44.15;100836.84;5055842;28;45420;-70
2023/06/15 07:28:27;;;;;;;;;20.50;20.50;;;;;22.75;43.92;100837.66;5055043;28;45290;-71
2023/06/15 07:30:52;;;;;;;;;24.00;24.00;;;;;22.84;44.19;100836.03;5055496;28;45766;-73
2023/06/15 07:33:18;;;;;;;;;22.00;22.00;;;;;22.90;44.06;100835.47;5057671;28;45629;-69
2023/06/15 07:35:44;;;;;;;;;21.25;21.25;;;;;22.97;44.27;100846.53;5056901;28;46310;-70
2023/06/15 07:38:09;;;;;;;;;22.25;22.00;;;;;22.99;43.78;100854.41;5055171;28;45920;-73
2023/06/15 07:40:35;;;;;;;;;24.00;24.00;;;;;23.01;44.55;100850.63;5056135;28;45614;-72
2023/06/15 07:43:00;;;;;;;;;23.25;23.25;;;;;23.05;44.22;100848.50;5057132;28;45557;-71
2023/06/15 07:45:26;;;;;;;;;26.25;26.25;;;;;23.03;43.73;100835.25;5057084;28;46258;-73
2023/06/15 07:47:51;;;;;;;;;24.75;24.75;;;;;23.16;43.86;100840.34;5056697;28;45327;-72
2023/06/15 07:50:17;;;;;;;;;20.50;20.50;;;;;23.23;43.63;100850.53;5056903;28;45453;-71
2023/06/15 07:52:42;;;;;;;;;23.00;22.25;;;;;23.20;44.01;100849.81;5055432;28;45247;-71
2023/06/15 07:55:07;;;;;;;;;22.50;22.50;;;;;23.21;43.83;100848.00;5056496;28;46036;-72
2023/06/15 07:57:34;;;;;;;;;22.50;22.50;;;;;23.26;44.07;100844.91;5056495;28;45381;-73
2023/06/15 08:00:01;;;;;;;;;17.75;17.75;;;;;23.33;43.83;100848.78;5056620;28;45332;-70
2023/06/15 08:02:26;;;;;;;;;23.75;23.75;;;;;23.42;43.80;100849.75;5057011;28;45611;-71
2023/06/15 08:04:51;;;;;;;;;17.50;17.50;;;;;23.50;43.98;100841.84;5056413;28;45458;-71
2023/06/15 08:07:17;;;;;;;;;18.50;18.50;;;;;23.62;43.56;100848.78;5056381;28;57682;-72
2023/06/15 08:09:42;;;;;;;;;19.75;19.75;;;;;23.70;42.99;100841.84;5056303;28;45408;-69
2023/06/15 08:12:08;;;;;;;;;22.75;22.75;;;;;23.75;42.50;100844.97;5056429;28;45506;-71
2023/06/15 08:14:35;;;;;;;;;16.25;16.25;;;;;23.81;42.70;100855.13;5055845;28;45422;-69
2023/06/15 08:17:01;;;;;;;;;20.00;20.00;;;;;23.87;41.77;100856.41;5054632;28;45742;-70
2023/06/15 08:19:27;;;;;;;;;17.75;17.75;;;;;23.91;41.23;100850.63;5056110;28;45272;-71
2023/06/15 08:21:52;;;;;;;;;16.50;16.50;;;;;23.96;41.45;100846.66;5056319;28;45371;-71
2023/06/15 08:24:17;;;;;;;;;15.00;15.00;;;;;24.01;40.88;100855.19;5056098;28;46453;-72
2023/06/15 08:26:43;;;;;;;;;15.25;15.25;;;;;24.03;40.85;100854.03;5055777;28;45319;-72
2023/06/15 08:29:08;;;;;;;;;15.75;15.75;;;;;24.08;40.54;100856.28;5054210;28;45367;-72
2023/06/15 08:31:35;;;;;;;;;15.25;15.25;;;;;24.14;39.93;100853.03;5056103;28;45542;-72
2023/06/15 08:34:00;;;;;;;;;14.25;14.25;;;;;24.22;39.90;100849.59;5055485;28;46272;-71
2023/06/15 08:36:25;;;;;;;;;15.75;15.75;;;;;24.28;40.03;100858.94;5055480;28;45336;-70
2023/06/15 08:38:51;;;;;;;;;20.75;20.25;;;;;24.36;40.10;100854.53;5056044;28;47952;-71
2023/06/15 08:41:17;;;;;;;;;16.75;16.75;;;;;24.44;40.41;100848.44;5055873;28;45230;-71
2023/06/15 08:43:44;;;;;;;;;16.25;16.25;;;;;24.52;40.16;100855.78;5055731;28;46461;-72
2023/06/15 08:46:11;;;;;;;;;15.50;15.50;;;;;24.59;39.51;100861.41;5054034;28;46016;-71
2023/06/15 08:48:38;;;;;;;;;15.00;15.00;;;;;24.63;40.09;100857.41;5054094;28;45373;-71
2023/06/15 08:51:05;;;;;;;;;16.00;16.00;;;;;24.61;39.34;100854.91;5055827;28;45200;-68
2023/06/15 08:53:32;;;;;;;;;17.25;17.25;;;;;24.72;39.93;100858.41;5054607;28;46437;-72
2023/06/15 08:55:57;;;;;;;;;14.00;14.00;;;;;24.79;39.76;100857.66;5054094;28;45414;-69
2023/06/15 08:58:22;;;;;;;;;15.25;15.25;;;;;24.85;39.52;100861.63;5054577;28;45422;-70
2023/06/15 09:00:48;;;;;;;;;15.25;15.25;;;;;24.86;39.51;100857.94;5056070;28;45324;-71
2023/06/15 09:03:17;;;;;;;;;16.25;16.25;;;;;24.89;39.32;100860.31;5055851;28;45661;-72
2023/06/15 09:05:43;;;;;;;;;14.00;14.00;;;;;24.94;38.87;100857.19;5055671;28;45324;-73
2023/06/15 09:08:09;;;;;;;;;16.25;16.25;;;;;24.98;39.42;100861.28;5056021;28;45272;-72
2023/06/15 09:10:36;;;;;;;;;10.75;10.75;;;;;25.07;39.34;100856.84;5056453;28;45644;-70
2023/06/15 09:13:05;;;;;;;;;11.50;11.50;;;;;25.12;39.31;100859.09;5055679;28;46039;-74
2023/06/15 09:15:30;;;;;;;;;15.00;15.00;;;;;25.17;38.26;100862.16;5055972;28;45333;-69
2023/06/15 09:18:01;;;;;;;;;12.00;12.00;;;;;25.21;38.33;100861.69;5055270;28;45734;-70
2023/06/15 09:20:31;;;;;;;;;11.25;11.25;;;;;25.23;38.67;100851.63;5054248;28;45363;-70
2023/06/15 09:22:58;;;;;;;;;12.00;12.00;;;;;25.35;38.29;100859.50;5055041;28;45645;-74
2023/06/15 09:25:24;;;;;;;;;11.00;11.00;;;;;25.35;37.88;100844.19;5053959;28;45247;-72
2023/06/15 09:27:58;;;;;;;;;13.25;13.25;;;;;25.53;37.94;100856.84;5054955;28;45318;-71
2023/06/15 09:30:35;;;;;;;;;12.00;12.00;;;;;25.62;37.51;100866.69;5055413;28;45484;-73
2023/06/15 09:33:17;;;;;;;;;19.75;18.50;;;;;25.69;37.53;100855.31;5054745;28;46434;-70
2023/06/15 09:36:05;;;;;;;;;16.25;16.25;;;;;25.79;37.43;100861.47;5053084;28;45368;-71
2023/06/15 09:38:40;;;;;;;;;13.50;13.50;;;;;25.90;37.57;100858.53;5055070;28;45434;-74
2023/06/15 09:41:07;;;;;;;;;11.50;11.50;;;;;25.97;36.64;100864.16;5055392;28;45290;-72
2023/06/15 09:43:40;;;;;;;;;12.00;12.00;;;;;26.00;35.79;100857.63;5054677;28;45546;-71
2023/06/15 09:46:13;;;;;;;;;12.00;12.00;;;;;26.10;36.24;100861.91;5054555;28;45311;-75
2023/06/15 09:48:43;;;;;;;;;13.75;13.75;;;;;26.17;36.34;100867.53;5054669;28;45245;-74
2023/06/15 09:51:10;;;;;;;;;12.00;12.00;;;;;26.20;36.16;100858.28;5054726;28;45419;-74
2023/06/15 09:53:37;;;;;;;;;10.50;10.50;;;;;26.26;35.11;100865.72;5054407;28;47353;-73
2023/06/15 09:56:03;;;;;;;;;10.50;10.50;;;;;26.29;35.00;100862.72;5054068;28;45289;-71
2023/06/15 09:58:29;;;;;;;;;13.00;13.00;;;;;26.35;35.30;100854.00;5052873;28;45282;-72
2023/06/15 10:00:57;;;;;;;;;12.50;12.50;;;;;26.43;35.36;100860.44;5054302;28;45496;-72
2023/06/15 10:03:24;;;;;;;;;10.50;10.50;;;;;26.45;35.02;100853.91;5055030;28;45382;-74
2023/06/15 10:05:54;;;;;;;;;14.75;14.75;;;;;26.52;35.17;100854.13;5054279;28;45555;-72
2023/06/15 10:08:25;;;;;;;;;13.00;13.00;;;;;26.48;34.74;100853.59;5053013;28;45203;-75
2023/06/15 10:10:55;;;;;;;;;12.75;12.75;;;;;26.58;34.60;100850.78;5054541;28;45424;-75
2023/06/15 10:13:33;;;;;;;;;13.00;13.00;;;;;26.62;34.44;100843.19;5054036;28;48211;-75
2023/06/15 10:16:02;;;;;;;;;9.75;9.75;;;;;26.75;32.83;100856.25;5054773;28;45443;-69
2023/06/15 10:18:30;;;;;;;;;13.50;13.50;;;;;26.74;33.57;100855.41;5053106;28;45391;-72
2023/06/15 10:20:59;;;;;;;;;13.25;13.25;;;;;26.75;33.29;100858.97;5054686;28;45380;-73
2023/06/15 10:23:26;;;;;;;;;12.25;12.25;;;;;26.65;33.75;100853.66;5052700;28;48000;-72
2023/06/15 10:25:57;;;;;;;;;12.00;12.00;;;;;26.68;33.42;100861.44;5053990;28;45263;-73
2023/06/15 10:28:27;;;;;;;;;11.75;11.75;;;;;26.67;33.02;100860.59;5054159;28;45378;-70
2023/06/15 10:31:19;;;;;;;;;15.00;15.00;;;;;26.74;33.50;100854.56;5053785;28;45342;-70
2023/06/15 10:34:18;;;;;;;;;13.00;13.00;;;;;26.88;33.39;100859.38;5052016;28;47089;-69
2023/06/15 10:37:03;;;;;;;;;13.00;13.00;;;;;26.94;33.34;100853.34;5053366;28;45362;-71
2023/06/15 10:39:35;;;;;;;;;12.50;12.50;;;;;27.04;33.59;100860.44;5054016;28;45353;-72
2023/06/15 10:42:08;;;;;;;;;11.50;11.50;;;;;27.10;33.34;100857.09;5053626;28;45358;-73
2023/06/15 10:44:34;;;;;;;;;12.75;12.75;;;;;27.12;32.58;100857.78;5051823;28;48379;-72
2023/06/15 10:47:12;;;;;;;;;12.00;12.00;;;;;27.19;32.63;100855.28;5053869;28;45308;-73
2023/06/15 10:49:52;;;;;;;;;14.50;14.50;;;;;27.21;32.27;100847.84;5051959;28;45401;-73
2023/06/15 10:52:18;;;;;;;;;13.25;13.25;;;;;27.30;32.30;100848.69;5053723;28;45331;-72
2023/06/15 10:54:44;;;;;;;;;13.00;13.00;;;;;27.37;32.07;100852.44;5052081;28;47015;-73
2023/06/15 10:57:16;;;;;;;;;20.75;19.75;;;;;27.45;31.75;100847.03;5051820;28;45412;-72
2023/06/15 10:59:46;;;;;;;;;14.00;14.00;;;;;27.55;31.78;100853.16;5053663;28;45434;-70
2023/06/15 11:02:34;;;;;;;;;13.00;13.00;;;;;27.61;31.40;100848.97;5053229;28;45488;-69
2023/06/15 11:05:03;;;;;;;;;15.00;15.00;;;;;27.64;31.87;100851.31;5044017;28;47260;-72
2023/06/15 11:07:34;;;;;;;;;12.75;12.75;;;;;27.66;32.15;100848.47;5052654;28;45665;-73
2023/06/15 11:10:02;;;;;;;;;15.25;15.25;;;;;27.62;31.32;100849.81;5052312;28;45487;-70